WXM80 ListenWXM80 Stop

You find our weather info also at:

UK Metoffice

WeatherCloud

Weather Underground

Northeastern Weather Network

AWEKAS

Citizen Weather Observer Program (CWOP)

HAMweather, WeatherForYou, PWS Weather


Weather Underground History page Text

Daily Summary for July 8, 2017 Units:  Both    English   Metric
« Previous Day
Next Day »
Daily Weekly Monthly Yearly Custom
  High: Low: Average:
Temperature: 90.5 °F /  32.5 °C 67.3 °F /  19.6 °C 76.9 °F /  24.9 °C
Dew Point: 77.1 °F /  25.1 °C 63.5 °F /  17.5 °C 69.2 °F /  20.7 °C
Humidity: 98 % 54 % 79 %
Wind Speed: 7.9 mph /  12.7 km/h - 1.6 mph /  2.6 km/h
Wind Gust: 14.0 mph /  22.5 km/h - -
Wind:- - WSW
Pressure: 29.82 in /  1009.7 hPa 29.66 in /  1004.3 hPa -
Precipitation: 0.08 in /  2.03 mm    
Historical Graphs
 
 
Tabular Data for July 8, 2017
Time Temperature Dew Point Pressure Wind Wind Speed Wind Gust Humidity Rainfall Rate (Hourly)
00:05 71.2 °F /  21.8 °C 69.4 °F /  20.8 °C 29.72 in /  1006.3 hPa SW 2.0 mph /  3.2 km/h 7.0 mph /  11.3 km/h 94 % 0.00 in /  0 mm
00:10 71.2 °F /  21.8 °C 69.4 °F /  20.8 °C 29.72 in /  1006.3 hPa SW 3.0 mph /  4.8 km/h 10.0 mph /  16.1 km/h 94 % 0.00 in /  0 mm
00:15 71.2 °F /  21.8 °C 69.4 °F /  20.8 °C 29.72 in /  1006.3 hPa WSW 2.0 mph /  3.2 km/h 11.0 mph /  17.7 km/h 94 % 0.01 in /  0.25 mm
00:20 71.2 °F /  21.8 °C 69.4 °F /  20.8 °C 29.72 in /  1006.3 hPa WSW 3.0 mph /  4.8 km/h 10.0 mph /  16.1 km/h 94 % 0.02 in /  0.51 mm
00:25 71.1 °F /  21.7 °C 69.3 °F /  20.7 °C 29.72 in /  1006.3 hPa WSW 5.0 mph /  8 km/h 11.0 mph /  17.7 km/h 94 % 0.02 in /  0.51 mm
00:30 70.9 °F /  21.6 °C 69.1 °F /  20.6 °C 29.72 in /  1006.3 hPa WSW 5.0 mph /  8 km/h 10.0 mph /  16.1 km/h 94 % 0.02 in /  0.51 mm
00:35 70.7 °F /  21.5 °C 68.6 °F /  20.3 °C 29.72 in /  1006.3 hPa WSW 1.0 mph /  1.6 km/h 9.0 mph /  14.5 km/h 93 % 0.01 in /  0.25 mm
00:40 70.5 °F /  21.4 °C 68.4 °F /  20.2 °C 29.72 in /  1006.3 hPa WSW 3.0 mph /  4.8 km/h 4.0 mph /  6.4 km/h 93 % 0.00 in /  0 mm
00:45 70.2 °F /  21.2 °C 67.8 °F /  19.9 °C 29.72 in /  1006.3 hPa West 2.0 mph /  3.2 km/h 6.0 mph /  9.7 km/h 92 % 0.01 in /  0.25 mm
00:50 70.0 °F /  21.1 °C 67.6 °F /  19.8 °C 29.72 in /  1006.3 hPa West 2.0 mph /  3.2 km/h 5.0 mph /  8 km/h 92 % 0.01 in /  0.25 mm
00:55 69.8 °F /  21 °C 67.4 °F /  19.7 °C 29.72 in /  1006.3 hPa Calm   4.0 mph /  6.4 km/h 92 % 0.00 in /  0 mm
01:05 69.4 °F /  20.8 °C 67.0 °F /  19.4 °C 29.70 in /  1005.6 hPa Calm   1.0 mph /  1.6 km/h 92 % 0.02 in /  0.51 mm
01:10 69.2 °F /  20.7 °C 66.8 °F /  19.3 °C 29.70 in /  1005.6 hPa Calm     92 % 0.01 in /  0.25 mm
01:15 69.1 °F /  20.6 °C 66.7 °F /  19.3 °C 29.70 in /  1005.6 hPa Calm     92 % 0.00 in /  0 mm
01:20 68.9 °F /  20.5 °C 66.5 °F /  19.2 °C 29.69 in /  1005.3 hPa Calm     92 % 0.00 in /  0 mm
01:25 68.8 °F /  20.4 °C 66.4 °F /  19.1 °C 29.69 in /  1005.3 hPa Calm     92 % 0.00 in /  0 mm
01:30 68.6 °F /  20.3 °C 66.2 °F /  19 °C 29.69 in /  1005.3 hPa Calm     92 % 0.00 in /  0 mm
01:35 68.5 °F /  20.3 °C 66.1 °F /  18.9 °C 29.69 in /  1005.3 hPa Calm     92 % 0.00 in /  0 mm
01:40 68.3 °F /  20.2 °C 65.9 °F /  18.8 °C 29.69 in /  1005.3 hPa Calm     92 % 0.00 in /  0 mm
01:45 68.2 °F /  20.1 °C 66.1 °F /  18.9 °C 29.69 in /  1005.3 hPa Calm     93 % 0.00 in /  0 mm
01:50 68.2 °F /  20.1 °C 66.1 °F /  18.9 °C 29.69 in /  1005.3 hPa Calm     93 % 0.00 in /  0 mm
01:55 68.1 °F /  20.1 °C 66.0 °F /  18.9 °C 29.69 in /  1005.3 hPa Calm     93 % 0.00 in /  0 mm
02:05 67.9 °F /  19.9 °C 65.8 °F /  18.8 °C 29.69 in /  1005.3 hPa Calm     93 % 0.00 in /  0 mm
02:10 67.9 °F /  19.9 °C 65.8 °F /  18.8 °C 29.69 in /  1005.3 hPa Calm     93 % 0.00 in /  0 mm
02:15 67.8 °F /  19.9 °C 65.7 °F /  18.7 °C 29.68 in /  1005 hPa Calm     93 % 0.00 in /  0 mm
02:20 67.7 °F /  19.8 °C 65.6 °F /  18.7 °C 29.68 in /  1005 hPa Calm     93 % 0.00 in /  0 mm
02:25 67.7 °F /  19.8 °C 65.9 °F /  18.8 °C 29.68 in /  1005 hPa Calm     94 % 0.00 in /  0 mm
02:30 67.6 °F /  19.8 °C 65.8 °F /  18.8 °C 29.68 in /  1005 hPa Calm     94 % 0.00 in /  0 mm
02:35 67.6 °F /  19.8 °C 65.8 °F /  18.8 °C 29.69 in /  1005.3 hPa Calm     94 % 0.00 in /  0 mm
02:40 67.6 °F /  19.8 °C 65.8 °F /  18.8 °C 29.68 in /  1005 hPa Calm     94 % 0.00 in /  0 mm
02:45 67.6 °F /  19.8 °C 65.8 °F /  18.8 °C 29.68 in /  1005 hPa Calm     94 % 0.00 in /  0 mm
02:50 67.6 °F /  19.8 °C 66.1 °F /  18.9 °C 29.69 in /  1005.3 hPa Calm     95 % 0.00 in /  0 mm
02:55 67.7 °F /  19.8 °C 66.2 °F /  19 °C 29.69 in /  1005.3 hPa Calm     95 % 0.00 in /  0 mm
03:05 67.7 °F /  19.8 °C 66.2 °F /  19 °C 29.68 in /  1005 hPa Calm     95 % 0.00 in /  0 mm
03:10 67.6 °F /  19.8 °C 66.1 °F /  18.9 °C 29.68 in /  1005 hPa Calm     95 % 0.00 in /  0 mm
03:15 67.6 °F /  19.8 °C 66.1 °F /  18.9 °C 29.68 in /  1005 hPa Calm     95 % 0.00 in /  0 mm
03:20 67.6 °F /  19.8 °C 66.1 °F /  18.9 °C 29.68 in /  1005 hPa Calm     95 % 0.00 in /  0 mm
03:25 67.7 °F /  19.8 °C 66.2 °F /  19 °C 29.69 in /  1005.3 hPa Calm     95 % 0.00 in /  0 mm
03:30 67.6 °F /  19.8 °C 66.1 °F /  18.9 °C 29.68 in /  1005 hPa Calm     95 % 0.00 in /  0 mm
03:35 67.6 °F /  19.8 °C 66.1 °F /  18.9 °C 29.69 in /  1005.3 hPa Calm     95 % 0.00 in /  0 mm
03:40 67.6 °F /  19.8 °C 66.1 °F /  18.9 °C 29.69 in /  1005.3 hPa Calm     95 % 0.00 in /  0 mm
03:45 67.5 °F /  19.7 °C 66.0 °F /  18.9 °C 29.69 in /  1005.3 hPa Calm     95 % 0.00 in /  0 mm
03:50 67.5 °F /  19.7 °C 66.0 °F /  18.9 °C 29.69 in /  1005.3 hPa Calm     95 % 0.00 in /  0 mm
03:55 67.4 °F /  19.7 °C 65.9 °F /  18.8 °C 29.69 in /  1005.3 hPa Calm     95 % 0.00 in /  0 mm
04:10 67.3 °F /  19.6 °C 65.8 °F /  18.8 °C 29.68 in /  1005 hPa Calm     95 % 0.00 in /  0 mm
04:15 67.3 °F /  19.6 °C 65.8 °F /  18.8 °C 29.68 in /  1005 hPa Calm     95 % 0.00 in /  0 mm
04:20 67.3 °F /  19.6 °C 65.8 °F /  18.8 °C 29.68 in /  1005 hPa Calm     95 % 0.00 in /  0 mm
04:25 67.3 °F /  19.6 °C 65.8 °F /  18.8 °C 29.68 in /  1005 hPa Calm     95 % 0.00 in /  0 mm
04:30 67.3 °F /  19.6 °C 66.1 °F /  18.9 °C 29.68 in /  1005 hPa Calm   1.0 mph /  1.6 km/h 96 % 0.00 in /  0 mm
04:35 67.4 °F /  19.7 °C 66.2 °F /  19 °C 29.69 in /  1005.3 hPa West 1.0 mph /  1.6 km/h 4.0 mph /  6.4 km/h 96 % 0.00 in /  0 mm
04:40 67.4 °F /  19.7 °C 66.2 °F /  19 °C 29.69 in /  1005.3 hPa WSW 1.0 mph /  1.6 km/h 2.0 mph /  3.2 km/h 96 % 0.00 in /  0 mm
04:45 67.5 °F /  19.7 °C 66.3 °F /  19.1 °C 29.69 in /  1005.3 hPa Calm   1.0 mph /  1.6 km/h 96 % 0.00 in /  0 mm
04:50 67.4 °F /  19.7 °C 66.2 °F /  19 °C 29.69 in /  1005.3 hPa Calm   3.0 mph /  4.8 km/h 96 % 0.00 in /  0 mm
04:55 67.4 °F /  19.7 °C 66.2 °F /  19 °C 29.69 in /  1005.3 hPa WSW 1.0 mph /  1.6 km/h 4.0 mph /  6.4 km/h 96 % 0.00 in /  0 mm
05:05 67.5 °F /  19.7 °C 66.3 °F /  19.1 °C 29.69 in /  1005.3 hPa WSW 2.0 mph /  3.2 km/h 3.0 mph /  4.8 km/h 96 % 0.01 in /  0.25 mm
05:10 67.6 °F /  19.8 °C 66.4 °F /  19.1 °C 29.69 in /  1005.3 hPa WSW 2.0 mph /  3.2 km/h 6.0 mph /  9.7 km/h 96 % 0.00 in /  0 mm
05:15 67.8 °F /  19.9 °C 66.9 °F /  19.4 °C 29.69 in /  1005.3 hPa Calm   5.0 mph /  8 km/h 97 % 0.00 in /  0 mm
05:20 67.9 °F /  19.9 °C 67.0 °F /  19.4 °C 29.69 in /  1005.3 hPa WSW 1.0 mph /  1.6 km/h 4.0 mph /  6.4 km/h 97 % 0.00 in /  0 mm
05:25 68.0 °F /  20 °C 67.1 °F /  19.5 °C 29.69 in /  1005.3 hPa WSW 1.0 mph /  1.6 km/h 4.0 mph /  6.4 km/h 97 % 0.00 in /  0 mm
05:30 68.0 °F /  20 °C 67.1 °F /  19.5 °C 29.69 in /  1005.3 hPa WSW 2.0 mph /  3.2 km/h 3.0 mph /  4.8 km/h 97 % 0.00 in /  0 mm
05:35 68.1 °F /  20.1 °C 67.2 °F /  19.6 °C 29.69 in /  1005.3 hPa WSW 1.0 mph /  1.6 km/h 5.0 mph /  8 km/h 97 % 0.00 in /  0 mm
05:40 68.2 °F /  20.1 °C 67.3 °F /  19.6 °C 29.70 in /  1005.6 hPa WSW 2.0 mph /  3.2 km/h 4.0 mph /  6.4 km/h 97 % 0.00 in /  0 mm
05:45 68.3 °F /  20.2 °C 67.4 °F /  19.7 °C 29.70 in /  1005.6 hPa Calm   4.0 mph /  6.4 km/h 97 % 0.00 in /  0 mm
05:50 68.3 °F /  20.2 °C 67.4 °F /  19.7 °C 29.70 in /  1005.6 hPa West 1.0 mph /  1.6 km/h 3.0 mph /  4.8 km/h 97 % 0.00 in /  0 mm
05:55 68.3 °F /  20.2 °C 67.4 °F /  19.7 °C 29.69 in /  1005.3 hPa Calm   2.0 mph /  3.2 km/h 97 % 0.00 in /  0 mm
06:05 68.4 °F /  20.2 °C 67.5 °F /  19.7 °C 29.70 in /  1005.6 hPa Calm   1.0 mph /  1.6 km/h 97 % 0.00 in /  0 mm
06:10 68.4 °F /  20.2 °C 67.5 °F /  19.7 °C 29.70 in /  1005.6 hPa West 1.0 mph /  1.6 km/h 2.0 mph /  3.2 km/h 97 % 0.00 in /  0 mm
06:15 68.4 °F /  20.2 °C 67.5 °F /  19.7 °C 29.70 in /  1005.6 hPa Calm   3.0 mph /  4.8 km/h 97 % 0.00 in /  0 mm
06:20 68.5 °F /  20.3 °C 67.6 °F /  19.8 °C 29.70 in /  1005.6 hPa Calm   1.0 mph /  1.6 km/h 97 % 0.00 in /  0 mm
06:25 68.5 °F /  20.3 °C 67.6 °F /  19.8 °C 29.70 in /  1005.6 hPa Calm   4.0 mph /  6.4 km/h 97 % 0.00 in /  0 mm
06:30 68.7 °F /  20.4 °C 67.8 °F /  19.9 °C 29.70 in /  1005.6 hPa WSW 1.0 mph /  1.6 km/h 3.0 mph /  4.8 km/h 97 % 0.00 in /  0 mm
06:35 68.9 °F /  20.5 °C 68.0 °F /  20 °C 29.70 in /  1005.6 hPa Calm   3.0 mph /  4.8 km/h 97 % 0.00 in /  0 mm
06:40 69.1 °F /  20.6 °C 68.5 °F /  20.3 °C 29.70 in /  1005.6 hPa Calm   1.0 mph /  1.6 km/h 98 % 0.00 in /  0 mm
06:45 69.4 °F /  20.8 °C 68.5 °F /  20.3 °C 29.70 in /  1005.6 hPa Calm   2.0 mph /  3.2 km/h 97 % 0.00 in /  0 mm
06:50 69.7 °F /  20.9 °C 68.8 °F /  20.4 °C 29.70 in /  1005.6 hPa SSW 1.0 mph /  1.6 km/h 2.0 mph /  3.2 km/h 97 % 0.00 in /  0 mm
06:55 70.1 °F /  21.2 °C 69.5 °F /  20.8 °C 29.70 in /  1005.6 hPa Calm   2.0 mph /  3.2 km/h 98 % 0.00 in /  0 mm
07:05 70.8 °F /  21.6 °C 70.2 °F /  21.2 °C 29.70 in /  1005.6 hPa Calm   3.0 mph /  4.8 km/h 98 % 0.00 in /  0 mm
07:10 71.1 °F /  21.7 °C 70.5 °F /  21.4 °C 29.69 in /  1005.3 hPa Calm   3.0 mph /  4.8 km/h 98 % 0.00 in /  0 mm
07:15 71.5 °F /  21.9 °C 70.9 °F /  21.6 °C 29.69 in /  1005.3 hPa Calm   2.0 mph /  3.2 km/h 98 % 0.00 in /  0 mm
07:20 71.9 °F /  22.2 °C 71.3 °F /  21.8 °C 29.69 in /  1005.3 hPa Calm   2.0 mph /  3.2 km/h 98 % 0.00 in /  0 mm
07:25 72.1 °F /  22.3 °C 71.5 °F /  21.9 °C 29.69 in /  1005.3 hPa Calm   1.0 mph /  1.6 km/h 98 % 0.00 in /  0 mm
07:30 72.2 °F /  22.3 °C 71.6 °F /  22 °C 29.70 in /  1005.6 hPa Calm   1.0 mph /  1.6 km/h 98 % 0.00 in /  0 mm
07:35 72.4 °F /  22.4 °C 71.8 °F /  22.1 °C 29.69 in /  1005.3 hPa Calm   3.0 mph /  4.8 km/h 98 % 0.00 in /  0 mm
07:40 72.5 °F /  22.5 °C 71.9 °F /  22.2 °C 29.69 in /  1005.3 hPa Calm   2.0 mph /  3.2 km/h 98 % 0.00 in /  0 mm
07:45 72.6 °F /  22.6 °C 72.0 °F /  22.2 °C 29.69 in /  1005.3 hPa West 1.0 mph /  1.6 km/h 3.0 mph /  4.8 km/h 98 % 0.00 in /  0 mm
07:50 72.6 °F /  22.6 °C 72.0 °F /  22.2 °C 29.69 in /  1005.3 hPa West 2.0 mph /  3.2 km/h 4.0 mph /  6.4 km/h 98 % 0.00 in /  0 mm
07:55 72.6 °F /  22.6 °C 71.7 °F /  22.1 °C 29.69 in /  1005.3 hPa WSW 3.0 mph /  4.8 km/h 5.0 mph /  8 km/h 97 % 0.00 in /  0 mm
08:05 72.7 °F /  22.6 °C 71.8 °F /  22.1 °C 29.70 in /  1005.6 hPa SW 3.0 mph /  4.8 km/h 5.0 mph /  8 km/h 97 % 0.00 in /  0 mm
08:10 72.8 °F /  22.7 °C 71.9 °F /  22.2 °C 29.71 in /  1006 hPa Calm   6.0 mph /  9.7 km/h 97 % 0.00 in /  0 mm
08:15 72.9 °F /  22.7 °C 72.0 °F /  22.2 °C 29.71 in /  1006 hPa SW 1.0 mph /  1.6 km/h 6.0 mph /  9.7 km/h 97 % 0.00 in /  0 mm
08:20 73.0 °F /  22.8 °C 72.1 °F /  22.3 °C 29.72 in /  1006.3 hPa Calm   5.0 mph /  8 km/h 97 % 0.00 in /  0 mm
08:25 73.1 °F /  22.8 °C 72.2 °F /  22.3 °C 29.71 in /  1006 hPa West 2.0 mph /  3.2 km/h 5.0 mph /  8 km/h 97 % 0.00 in /  0 mm
08:30 73.1 °F /  22.8 °C 72.2 °F /  22.3 °C 29.72 in /  1006.3 hPa West 3.0 mph /  4.8 km/h 6.0 mph /  9.7 km/h 97 % 0.00 in /  0 mm
08:35 73.2 °F /  22.9 °C 72.3 °F /  22.4 °C 29.72 in /  1006.3 hPa WSW 3.0 mph /  4.8 km/h 6.0 mph /  9.7 km/h 97 % 0.00 in /  0 mm
08:40 73.3 °F /  22.9 °C 72.1 °F /  22.3 °C 29.71 in /  1006 hPa WSW 3.0 mph /  4.8 km/h 6.0 mph /  9.7 km/h 96 % 0.00 in /  0 mm
08:45 73.4 °F /  23 °C 72.2 °F /  22.3 °C 29.72 in /  1006.3 hPa WSW 3.0 mph /  4.8 km/h 6.0 mph /  9.7 km/h 96 % 0.00 in /  0 mm
08:50 73.4 °F /  23 °C 72.2 °F /  22.3 °C 29.71 in /  1006 hPa WSW 1.0 mph /  1.6 km/h 5.0 mph /  8 km/h 96 % 0.00 in /  0 mm
08:55 73.6 °F /  23.1 °C 72.1 °F /  22.3 °C 29.71 in /  1006 hPa Calm   5.0 mph /  8 km/h 95 % 0.00 in /  0 mm
09:05 74.1 °F /  23.4 °C 72.6 °F /  22.6 °C 29.72 in /  1006.3 hPa West 2.0 mph /  3.2 km/h 4.0 mph /  6.4 km/h 95 % 0.00 in /  0 mm
09:10 74.2 °F /  23.4 °C 72.4 °F /  22.4 °C 29.72 in /  1006.3 hPa Calm   4.0 mph /  6.4 km/h 94 % 0.00 in /  0 mm
09:15 74.5 °F /  23.6 °C 72.7 °F /  22.6 °C 29.72 in /  1006.3 hPa Calm   3.0 mph /  4.8 km/h 94 % 0.00 in /  0 mm
09:20 74.6 °F /  23.7 °C 72.8 °F /  22.7 °C 29.71 in /  1006 hPa Calm   2.0 mph /  3.2 km/h 94 % 0.00 in /  0 mm
09:25 74.8 °F /  23.8 °C 72.6 °F /  22.6 °C 29.72 in /  1006.3 hPa Calm   2.0 mph /  3.2 km/h 93 % 0.00 in /  0 mm
09:30 74.9 °F /  23.8 °C 72.7 °F /  22.6 °C 29.72 in /  1006.3 hPa Calm   1.0 mph /  1.6 km/h 93 % 0.00 in /  0 mm
09:35 75.1 °F /  23.9 °C 72.9 °F /  22.7 °C 29.72 in /  1006.3 hPa Calm   2.0 mph /  3.2 km/h 93 % 0.00 in /  0 mm
09:40 75.3 °F /  24.1 °C 73.1 °F /  22.8 °C 29.71 in /  1006 hPa Calm   1.0 mph /  1.6 km/h 93 % 0.00 in /  0 mm
09:45 75.5 °F /  24.2 °C 73.3 °F /  22.9 °C 29.71 in /  1006 hPa Calm     93 % 0.00 in /  0 mm
09:50 75.7 °F /  24.3 °C 73.5 °F /  23.1 °C 29.72 in /  1006.3 hPa Calm   2.0 mph /  3.2 km/h 93 % 0.00 in /  0 mm
09:55 76.0 °F /  24.4 °C 73.8 °F /  23.2 °C 29.71 in /  1006 hPa Calm     93 % 0.00 in /  0 mm
10:05 76.5 °F /  24.7 °C 73.7 °F /  23.2 °C 29.71 in /  1006 hPa South 1.0 mph /  1.6 km/h 5.0 mph /  8 km/h 91 % 0.00 in /  0 mm
10:10 76.7 °F /  24.8 °C 73.5 °F /  23.1 °C 29.71 in /  1006 hPa Calm   1.0 mph /  1.6 km/h 90 % 0.00 in /  0 mm
10:15 77.0 °F /  25 °C 73.8 °F /  23.2 °C 29.72 in /  1006.3 hPa West 1.0 mph /  1.6 km/h 3.0 mph /  4.8 km/h 90 % 0.00 in /  0 mm
10:20 77.3 °F /  25.2 °C 73.8 °F /  23.2 °C 29.72 in /  1006.3 hPa Calm   4.0 mph /  6.4 km/h 89 % 0.00 in /  0 mm
10:25 77.7 °F /  25.4 °C 74.2 °F /  23.4 °C 29.72 in /  1006.3 hPa WSW 3.0 mph /  4.8 km/h 6.0 mph /  9.7 km/h 89 % 0.00 in /  0 mm
10:30 78.2 °F /  25.7 °C 74.7 °F /  23.7 °C 29.72 in /  1006.3 hPa Calm   4.0 mph /  6.4 km/h 89 % 0.00 in /  0 mm
10:35 78.5 °F /  25.8 °C 74.6 °F /  23.7 °C 29.72 in /  1006.3 hPa West 1.0 mph /  1.6 km/h 5.0 mph /  8 km/h 88 % 0.00 in /  0 mm
10:40 78.8 °F /  26 °C 74.6 °F /  23.7 °C 29.72 in /  1006.3 hPa WNW 1.0 mph /  1.6 km/h 3.0 mph /  4.8 km/h 87 % 0.00 in /  0 mm
10:45 79.1 °F /  26.2 °C 74.5 °F /  23.6 °C 29.72 in /  1006.3 hPa NNW 2.0 mph /  3.2 km/h 5.0 mph /  8 km/h 86 % 0.00 in /  0 mm
10:50 79.4 °F /  26.3 °C 74.5 °F /  23.6 °C 29.73 in /  1006.7 hPa NW 1.0 mph /  1.6 km/h 3.0 mph /  4.8 km/h 85 % 0.00 in /  0 mm
10:55 79.7 °F /  26.5 °C 74.8 °F /  23.8 °C 29.73 in /  1006.7 hPa Calm   5.0 mph /  8 km/h 85 % 0.00 in /  0 mm
11:05 80.2 °F /  26.8 °C 75.3 °F /  24.1 °C 29.72 in /  1006.3 hPa Calm   3.0 mph /  4.8 km/h 85 % 0.00 in /  0 mm
11:10 80.4 °F /  26.9 °C 75.5 °F /  24.2 °C 29.72 in /  1006.3 hPa Calm   2.0 mph /  3.2 km/h 85 % 0.00 in /  0 mm
11:15 80.5 °F /  26.9 °C 74.9 °F /  23.8 °C 29.72 in /  1006.3 hPa NNW 1.0 mph /  1.6 km/h 2.0 mph /  3.2 km/h 83 % 0.00 in /  0 mm
11:20 80.6 °F /  27 °C 75.0 °F /  23.9 °C 29.72 in /  1006.3 hPa NW 2.0 mph /  3.2 km/h 4.0 mph /  6.4 km/h 83 % 0.00 in /  0 mm
11:25 80.7 °F /  27.1 °C 74.3 °F /  23.5 °C 29.72 in /  1006.3 hPa West 2.0 mph /  3.2 km/h 5.0 mph /  8 km/h 81 % 0.00 in /  0 mm
11:30 80.8 °F /  27.1 °C 74.4 °F /  23.6 °C 29.72 in /  1006.3 hPa WSW 3.0 mph /  4.8 km/h 6.0 mph /  9.7 km/h 81 % 0.00 in /  0 mm
11:35 81.0 °F /  27.2 °C 75.0 °F /  23.9 °C 29.71 in /  1006 hPa WSW 2.0 mph /  3.2 km/h 4.0 mph /  6.4 km/h 82 % 0.00 in /  0 mm
11:40 81.2 °F /  27.3 °C 74.8 °F /  23.8 °C 29.71 in /  1006 hPa WSW 1.0 mph /  1.6 km/h 4.0 mph /  6.4 km/h 81 % 0.00 in /  0 mm
11:45 81.4 °F /  27.4 °C 75.0 °F /  23.9 °C 29.71 in /  1006 hPa WSW 2.0 mph /  3.2 km/h 5.0 mph /  8 km/h 81 % 0.00 in /  0 mm
11:50 81.8 °F /  27.7 °C 75.8 °F /  24.3 °C 29.70 in /  1005.6 hPa WSW 2.0 mph /  3.2 km/h 4.0 mph /  6.4 km/h 82 % 0.00 in /  0 mm
11:55 82.3 °F /  27.9 °C 76.3 °F /  24.6 °C 29.70 in /  1005.6 hPa Calm   3.0 mph /  4.8 km/h 82 % 0.00 in /  0 mm
12:05 83.5 °F /  28.6 °C 76.3 °F /  24.6 °C 29.70 in /  1005.6 hPa SW 3.0 mph /  4.8 km/h 11.0 mph /  17.7 km/h 79 % 0.00 in /  0 mm
12:10 84.1 °F /  28.9 °C 75.3 °F /  24.1 °C 29.70 in /  1005.6 hPa SW 1.0 mph /  1.6 km/h 6.0 mph /  9.7 km/h 75 % 0.00 in /  0 mm
12:15 84.6 °F /  29.2 °C 76.2 °F /  24.6 °C 29.70 in /  1005.6 hPa South 2.0 mph /  3.2 km/h 4.0 mph /  6.4 km/h 76 % 0.00 in /  0 mm
12:20 84.9 °F /  29.4 °C 74.4 °F /  23.6 °C 29.70 in /  1005.6 hPa South 2.0 mph /  3.2 km/h 8.0 mph /  12.9 km/h 71 % 0.00 in /  0 mm
12:26 85.5 °F /  29.7 °C 77.1 °F /  25.1 °C 29.69 in /  1005.3 hPa SW 4.1 mph /  6.6 km/h 5.8 mph /  9.3 km/h 76 % 0.00 in /  0 mm
12:31 85.9 °F /  29.9 °C 75.8 °F /  24.3 °C 29.69 in /  1005.3 hPa SW 3.8 mph /  6.1 km/h 5.8 mph /  9.3 km/h 72 % 0.00 in /  0 mm
12:36 86.3 °F /  30.2 °C 75.8 °F /  24.3 °C 29.69 in /  1005.3 hPa WNW 2.5 mph /  4 km/h 8.1 mph /  13 km/h 71 % 0.00 in /  0 mm
12:42 86.7 °F /  30.4 °C 75.3 °F /  24.1 °C 29.69 in /  1005.3 hPa SSW 1.1 mph /  1.8 km/h 4.6 mph /  7.4 km/h 69 % 0.00 in /  0 mm
12:47 87.0 °F /  30.6 °C 74.7 °F /  23.7 °C 29.69 in /  1005.3 hPa WSW 0.9 mph /  1.4 km/h 5.8 mph /  9.3 km/h 67 % 0.00 in /  0 mm
12:50 87.3 °F /  30.7 °C 75.0 °F /  23.9 °C 29.68 in /  1005 hPa SSW 4.9 mph /  7.9 km/h 9.2 mph /  14.8 km/h 67 % 0.00 in /  0 mm
12:55 87.3 °F /  30.7 °C 74.5 °F /  23.6 °C 29.69 in /  1005.3 hPa WSW 1.3 mph /  2.1 km/h 5.8 mph /  9.3 km/h 66 % 0.00 in /  0 mm
13:00 87.3 °F /  30.7 °C 73.6 °F /  23.1 °C 29.68 in /  1005 hPa West 3.7 mph /  6 km/h 6.9 mph /  11.1 km/h 64 % 0.00 in /  0 mm
13:05 87.4 °F /  30.8 °C 75.1 °F /  23.9 °C 29.69 in /  1005.3 hPa SSW 5.8 mph /  9.3 km/h 8.1 mph /  13 km/h 67 % 0.00 in /  0 mm
13:10 87.3 °F /  30.7 °C 72.7 °F /  22.6 °C 29.69 in /  1005.3 hPa WSW 4.4 mph /  7.1 km/h 6.9 mph /  11.1 km/h 62 % 0.00 in /  0 mm
13:15 87.4 °F /  30.8 °C 73.3 °F /  22.9 °C 29.68 in /  1005 hPa SW 3.4 mph /  5.5 km/h 5.8 mph /  9.3 km/h 63 % 0.00 in /  0 mm
13:20 87.6 °F /  30.9 °C 73.9 °F /  23.3 °C 29.68 in /  1005 hPa West 2.2 mph /  3.5 km/h 8.1 mph /  13 km/h 64 % 0.00 in /  0 mm
13:25 87.7 °F /  30.9 °C 72.6 °F /  22.6 °C 29.68 in /  1005 hPa West 2.4 mph /  3.9 km/h 5.0 mph /  8 km/h 61 % 0.00 in /  0 mm
13:30 87.9 °F /  31.1 °C 73.7 °F /  23.2 °C 29.68 in /  1005 hPa West 4.1 mph /  6.6 km/h 8.1 mph /  13 km/h 63 % 0.00 in /  0 mm
13:35 88.2 °F /  31.2 °C 73.0 °F /  22.8 °C 29.67 in /  1004.6 hPa SW 4.0 mph /  6.4 km/h 8.1 mph /  13 km/h 61 % 0.00 in /  0 mm
13:40 88.4 °F /  31.3 °C 73.7 °F /  23.2 °C 29.67 in /  1004.6 hPa SSW 4.1 mph /  6.6 km/h 7.0 mph /  11.3 km/h 62 % 0.00 in /  0 mm
13:45 88.6 °F /  31.4 °C 72.9 °F /  22.7 °C 29.67 in /  1004.6 hPa SW 3.2 mph /  5.1 km/h 6.0 mph /  9.7 km/h 60 % 0.00 in /  0 mm
13:50 88.7 °F /  31.5 °C 73.0 °F /  22.8 °C 29.67 in /  1004.6 hPa WSW 1.7 mph /  2.7 km/h 6.9 mph /  11.1 km/h 60 % 0.00 in /  0 mm
13:55 88.9 °F /  31.6 °C 73.7 °F /  23.2 °C 29.67 in /  1004.6 hPa SW 3.8 mph /  6.1 km/h 10.4 mph /  16.7 km/h 61 % 0.00 in /  0 mm
14:00 89.3 °F /  31.8 °C 72.6 °F /  22.6 °C 29.67 in /  1004.6 hPa SW 5.4 mph /  8.7 km/h 8.1 mph /  13 km/h 58 % 0.00 in /  0 mm
14:05 89.6 °F /  32 °C 72.3 °F /  22.4 °C 29.66 in /  1004.3 hPa SW 5.6 mph /  9 km/h 7.0 mph /  11.3 km/h 57 % 0.00 in /  0 mm
14:08 89.8 °F /  32.1 °C 72.5 °F /  22.5 °C 29.67 in /  1004.6 hPa WSW 0.7 mph /  1.1 km/h 3.5 mph /  5.6 km/h 57 % 0.00 in /  0 mm
14:13 90.2 °F /  32.3 °C 73.4 °F /  23 °C 29.67 in /  1004.6 hPa SSW 2.8 mph /  4.5 km/h 5.8 mph /  9.3 km/h 58 % 0.00 in /  0 mm
14:18 90.5 °F /  32.5 °C 73.2 °F /  22.9 °C 29.67 in /  1004.6 hPa WSW 3.8 mph /  6.1 km/h 8.1 mph /  13 km/h 57 % 0.00 in /  0 mm
14:23 90.5 °F /  32.5 °C 71.6 °F /  22 °C 29.67 in /  1004.6 hPa WSW 6.6 mph /  10.6 km/h 9.2 mph /  14.8 km/h 54 % 0.00 in /  0 mm
14:28 90.4 °F /  32.4 °C 72.6 °F /  22.6 °C 29.66 in /  1004.3 hPa WNW 3.9 mph /  6.3 km/h 6.0 mph /  9.7 km/h 56 % 0.00 in /  0 mm
14:33 90.1 °F /  32.3 °C 72.3 °F /  22.4 °C 29.67 in /  1004.6 hPa SW 2.6 mph /  4.2 km/h 3.5 mph /  5.6 km/h 56 % 0.00 in /  0 mm
14:38 89.7 °F /  32.1 °C 71.4 °F /  21.9 °C 29.67 in /  1004.6 hPa WSW 5.6 mph /  9 km/h 10.4 mph /  16.7 km/h 55 % 0.00 in /  0 mm
14:43 89.2 °F /  31.8 °C 71.5 °F /  21.9 °C 29.67 in /  1004.6 hPa West 0.7 mph /  1.1 km/h 4.6 mph /  7.4 km/h 56 % 0.00 in /  0 mm
14:48 88.8 °F /  31.6 °C 71.6 °F /  22 °C 29.67 in /  1004.6 hPa West 3.3 mph /  5.3 km/h 6.0 mph /  9.7 km/h 57 % 0.00 in /  0 mm
14:53 88.5 °F /  31.4 °C 70.8 °F /  21.6 °C 29.67 in /  1004.6 hPa SW 2.8 mph /  4.5 km/h 7.0 mph /  11.3 km/h 56 % 0.00 in /  0 mm
14:58 88.4 °F /  31.3 °C 72.2 °F /  22.3 °C 29.67 in /  1004.6 hPa SW 2.2 mph /  3.5 km/h 9.2 mph /  14.8 km/h 59 % 0.00 in /  0 mm
15:03 88.5 °F /  31.4 °C 71.3 °F /  21.8 °C 29.67 in /  1004.6 hPa WNW 5.3 mph /  8.5 km/h 10.4 mph /  16.7 km/h 57 % 0.00 in /  0 mm
15:08 88.6 °F /  31.4 °C 70.9 °F /  21.6 °C 29.67 in /  1004.6 hPa WNW 3.2 mph /  5.1 km/h 11.5 mph /  18.5 km/h 56 % 0.00 in /  0 mm
15:13 88.6 °F /  31.4 °C 70.4 °F /  21.3 °C 29.67 in /  1004.6 hPa SW 5.1 mph /  8.2 km/h 11.5 mph /  18.5 km/h 55 % 0.00 in /  0 mm
15:18 88.5 °F /  31.4 °C 69.7 °F /  20.9 °C 29.67 in /  1004.6 hPa WNW 4.4 mph /  7.1 km/h 11.5 mph /  18.5 km/h 54 % 0.00 in /  0 mm
15:23 88.3 °F /  31.3 °C 70.1 °F /  21.2 °C 29.67 in /  1004.6 hPa WSW 5.9 mph /  9.5 km/h 12.0 mph /  19.3 km/h 55 % 0.00 in /  0 mm
15:28 88.3 °F /  31.3 °C 71.6 °F /  22 °C 29.67 in /  1004.6 hPa WNW 5.5 mph /  8.9 km/h 9.2 mph /  14.8 km/h 58 % 0.00 in /  0 mm
15:33 88.2 °F /  31.2 °C 71.0 °F /  21.7 °C 29.67 in /  1004.6 hPa SW 3.6 mph /  5.8 km/h 6.9 mph /  11.1 km/h 57 % 0.00 in /  0 mm
15:38 88.2 °F /  31.2 °C 70.0 °F /  21.1 °C 29.67 in /  1004.6 hPa WNW 5.6 mph /  9 km/h 12.7 mph /  20.4 km/h 55 % 0.00 in /  0 mm
15:43 88.0 °F /  31.1 °C 69.8 °F /  21 °C 29.67 in /  1004.6 hPa SW 7.9 mph /  12.7 km/h 14.0 mph /  22.5 km/h 55 % 0.00 in /  0 mm
15:48 87.8 °F /  31 °C 69.1 °F /  20.6 °C 29.67 in /  1004.6 hPa West 4.2 mph /  6.8 km/h 9.0 mph /  14.5 km/h 54 % 0.00 in /  0 mm
15:53 87.7 °F /  30.9 °C 69.5 °F /  20.8 °C 29.67 in /  1004.6 hPa West 3.6 mph /  5.8 km/h 11.5 mph /  18.5 km/h 55 % 0.00 in /  0 mm
15:58 87.5 °F /  30.8 °C 70.9 °F /  21.6 °C 29.67 in /  1004.6 hPa West 2.0 mph /  3.2 km/h 5.8 mph /  9.3 km/h 58 % 0.00 in /  0 mm
16:03 87.2 °F /  30.7 °C 70.1 °F /  21.2 °C 29.66 in /  1004.3 hPa SSW 4.8 mph /  7.7 km/h 8.1 mph /  13 km/h 57 % 0.00 in /  0 mm
16:08 87.1 °F /  30.6 °C 70.0 °F /  21.1 °C 29.67 in /  1004.6 hPa WSW 5.8 mph /  9.3 km/h 10.4 mph /  16.7 km/h 57 % 0.00 in /  0 mm
16:13 87.3 °F /  30.7 °C 69.7 °F /  20.9 °C 29.67 in /  1004.6 hPa SSW 2.8 mph /  4.5 km/h 4.6 mph /  7.4 km/h 56 % 0.00 in /  0 mm
16:18 87.7 °F /  30.9 °C 69.5 °F /  20.8 °C 29.66 in /  1004.3 hPa SW 4.6 mph /  7.4 km/h 12.0 mph /  19.3 km/h 55 % 0.00 in /  0 mm
16:24 87.9 °F /  31.1 °C 70.2 °F /  21.2 °C 29.67 in /  1004.6 hPa WSW 6.1 mph /  9.8 km/h 11.5 mph /  18.5 km/h 56 % 0.00 in /  0 mm
16:29 87.9 °F /  31.1 °C 69.7 °F /  20.9 °C 29.66 in /  1004.3 hPa WSW 6.0 mph /  9.7 km/h 9.2 mph /  14.8 km/h 55 % 0.00 in /  0 mm
16:34 87.6 °F /  30.9 °C 69.4 °F /  20.8 °C 29.67 in /  1004.6 hPa SW 5.4 mph /  8.7 km/h 13.8 mph /  22.2 km/h 55 % 0.00 in /  0 mm
16:39 87.4 °F /  30.8 °C 69.8 °F /  21 °C 29.66 in /  1004.3 hPa SSW 5.2 mph /  8.4 km/h 11.5 mph /  18.5 km/h 56 % 0.00 in /  0 mm
16:44 87.2 °F /  30.7 °C 69.1 °F /  20.6 °C 29.66 in /  1004.3 hPa WNW 6.5 mph /  10.5 km/h 11.5 mph /  18.5 km/h 55 % 0.00 in /  0 mm
16:49 86.9 °F /  30.5 °C 69.8 °F /  21 °C 29.66 in /  1004.3 hPa WSW 2.3 mph /  3.7 km/h 6.9 mph /  11.1 km/h 57 % 0.00 in /  0 mm
16:54 86.6 °F /  30.3 °C 69.0 °F /  20.6 °C 29.66 in /  1004.3 hPa WSW 5.5 mph /  8.9 km/h 12.7 mph /  20.4 km/h 56 % 0.00 in /  0 mm
16:59 86.3 °F /  30.2 °C 68.8 °F /  20.4 °C 29.66 in /  1004.3 hPa WSW 6.2 mph /  10 km/h 11.5 mph /  18.5 km/h 56 % 0.00 in /  0 mm
17:04 86.1 °F /  30.1 °C 69.1 °F /  20.6 °C 29.66 in /  1004.3 hPa West 2.3 mph /  3.7 km/h 6.0 mph /  9.7 km/h 57 % 0.00 in /  0 mm
17:09 86.0 °F /  30 °C 69.5 °F /  20.8 °C 29.67 in /  1004.6 hPa West 1.0 mph /  1.6 km/h 3.5 mph /  5.6 km/h 58 % 0.00 in /  0 mm
17:14 85.9 °F /  29.9 °C 69.4 °F /  20.8 °C 29.67 in /  1004.6 hPa SW 6.7 mph /  10.8 km/h 10.4 mph /  16.7 km/h 58 % 0.00 in /  0 mm
17:19 85.8 °F /  29.9 °C 69.3 °F /  20.7 °C 29.67 in /  1004.6 hPa WSW 3.8 mph /  6.1 km/h 10.0 mph /  16.1 km/h 58 % 0.00 in /  0 mm
17:24 85.8 °F /  29.9 °C 69.3 °F /  20.7 °C 29.67 in /  1004.6 hPa WSW 4.8 mph /  7.7 km/h 8.1 mph /  13 km/h 58 % 0.00 in /  0 mm
17:29 85.7 °F /  29.8 °C 69.7 °F /  20.9 °C 29.67 in /  1004.6 hPa SSW 4.2 mph /  6.8 km/h 6.0 mph /  9.7 km/h 59 % 0.00 in /  0 mm
17:34 85.5 °F /  29.7 °C 70.0 °F /  21.1 °C 29.67 in /  1004.6 hPa West 0.8 mph /  1.3 km/h 4.6 mph /  7.4 km/h 60 % 0.00 in /  0 mm
17:39 85.4 °F /  29.7 °C 69.4 °F /  20.8 °C 29.67 in /  1004.6 hPa SSW 2.8 mph /  4.5 km/h 5.8 mph /  9.3 km/h 59 % 0.00 in /  0 mm
17:44 85.2 °F /  29.6 °C 69.3 °F /  20.7 °C 29.67 in /  1004.6 hPa West 3.3 mph /  5.3 km/h 5.8 mph /  9.3 km/h 59 % 0.00 in /  0 mm
17:49 85.0 °F /  29.4 °C 69.1 °F /  20.6 °C 29.67 in /  1004.6 hPa SSW 4.3 mph /  6.9 km/h 7.0 mph /  11.3 km/h 59 % 0.00 in /  0 mm
17:54 84.8 °F /  29.3 °C 69.4 °F /  20.8 °C 29.67 in /  1004.6 hPa WSW 4.8 mph /  7.7 km/h 9.2 mph /  14.8 km/h 60 % 0.00 in /  0 mm
17:59 84.6 °F /  29.2 °C 69.2 °F /  20.7 °C 29.67 in /  1004.6 hPa SW 2.7 mph /  4.3 km/h 5.0 mph /  8 km/h 60 % 0.00 in /  0 mm
18:04 84.3 °F /  29.1 °C 68.4 °F /  20.2 °C 29.68 in /  1005 hPa SSW 3.6 mph /  5.8 km/h 5.8 mph /  9.3 km/h 59 % 0.00 in /  0 mm
18:09 84.0 °F /  28.9 °C 68.1 °F /  20.1 °C 29.68 in /  1005 hPa West 4.5 mph /  7.2 km/h 6.9 mph /  11.1 km/h 59 % 0.00 in /  0 mm
18:14 83.8 °F /  28.8 °C 68.4 °F /  20.2 °C 29.68 in /  1005 hPa WSW 2.4 mph /  3.9 km/h 5.8 mph /  9.3 km/h 60 % 0.00 in /  0 mm
18:19 83.7 °F /  28.7 °C 68.8 °F /  20.4 °C 29.68 in /  1005 hPa WSW 0.4 mph /  0.6 km/h 3.5 mph /  5.6 km/h 61 % 0.00 in /  0 mm
18:25 83.6 °F /  28.7 °C 68.7 °F /  20.4 °C 29.68 in /  1005 hPa West 2.3 mph /  3.7 km/h 9.2 mph /  14.8 km/h 61 % 0.00 in /  0 mm
18:30 83.3 °F /  28.5 °C 68.4 °F /  20.2 °C 29.69 in /  1005.3 hPa West 2.8 mph /  4.5 km/h 4.6 mph /  7.4 km/h 61 % 0.00 in /  0 mm
18:35 83.0 °F /  28.3 °C 68.6 °F /  20.3 °C 29.69 in /  1005.3 hPa WSW 2.4 mph /  3.9 km/h 6.9 mph /  11.1 km/h 62 % 0.00 in /  0 mm
18:40 82.8 °F /  28.2 °C 68.4 °F /  20.2 °C 29.69 in /  1005.3 hPa WSW 0.9 mph /  1.4 km/h 5.8 mph /  9.3 km/h 62 % 0.00 in /  0 mm
18:45 82.5 °F /  28.1 °C 68.6 °F /  20.3 °C 29.69 in /  1005.3 hPa West 2.0 mph /  3.2 km/h 6.9 mph /  11.1 km/h 63 % 0.00 in /  0 mm
18:50 82.3 °F /  27.9 °C 68.4 °F /  20.2 °C 29.70 in /  1005.6 hPa WSW 3.8 mph /  6.1 km/h 8.1 mph /  13 km/h 63 % 0.00 in /  0 mm
18:55 82.1 °F /  27.8 °C 67.8 °F /  19.9 °C 29.70 in /  1005.6 hPa WSW 2.0 mph /  3.2 km/h 5.8 mph /  9.3 km/h 62 % 0.00 in /  0 mm
19:00 82.0 °F /  27.8 °C 67.7 °F /  19.8 °C 29.70 in /  1005.6 hPa SW 2.5 mph /  4 km/h 5.8 mph /  9.3 km/h 62 % 0.00 in /  0 mm
19:05 81.8 °F /  27.7 °C 68.0 °F /  20 °C 29.70 in /  1005.6 hPa West 1.5 mph /  2.4 km/h 3.5 mph /  5.6 km/h 63 % 0.00 in /  0 mm
19:08 81.6 °F /  27.6 °C 67.8 °F /  19.9 °C 29.71 in /  1006 hPa West 2.1 mph /  3.4 km/h 7.0 mph /  11.3 km/h 63 % 0.00 in /  0 mm
19:14 81.2 °F /  27.3 °C 67.9 °F /  19.9 °C 29.72 in /  1006.3 hPa WNW 2.7 mph /  4.3 km/h 7.0 mph /  11.3 km/h 64 % 0.00 in /  0 mm
19:19 80.7 °F /  27.1 °C 66.9 °F /  19.4 °C 29.72 in /  1006.3 hPa NNW 1.8 mph /  2.9 km/h 8.1 mph /  13 km/h 63 % 0.00 in /  0 mm
19:24 80.1 °F /  26.7 °C 67.3 °F /  19.6 °C 29.72 in /  1006.3 hPa NW 1.6 mph /  2.6 km/h 10.4 mph /  16.7 km/h 65 % 0.00 in /  0 mm
19:29 79.6 °F /  26.4 °C 67.2 °F /  19.6 °C 29.72 in /  1006.3 hPa NW 3.1 mph /  5 km/h 8.1 mph /  13 km/h 66 % 0.00 in /  0 mm
19:39 78.3 °F /  25.7 °C 66.9 °F /  19.4 °C 29.73 in /  1006.7 hPa WNW 2.5 mph /  4 km/h 10.4 mph /  16.7 km/h 68 % 0.00 in /  0 mm
19:44 77.7 °F /  25.4 °C 66.3 °F /  19.1 °C 29.74 in /  1007 hPa WNW 3.0 mph /  4.8 km/h 5.8 mph /  9.3 km/h 68 % 0.00 in /  0 mm
19:54 76.6 °F /  24.8 °C 65.7 °F /  18.7 °C 29.74 in /  1007 hPa WNW 2.5 mph /  4 km/h 4.6 mph /  7.4 km/h 69 % 0.00 in /  0 mm
19:59 76.3 °F /  24.6 °C 65.4 °F /  18.6 °C 29.74 in /  1007 hPa WNW 2.7 mph /  4.3 km/h 5.8 mph /  9.3 km/h 69 % 0.00 in /  0 mm
20:04 76.0 °F /  24.4 °C 65.1 °F /  18.4 °C 29.74 in /  1007 hPa WSW 0.5 mph /  0.8 km/h 4.0 mph /  6.4 km/h 69 % 0.00 in /  0 mm
20:09 75.8 °F /  24.3 °C 64.9 °F /  18.3 °C 29.74 in /  1007 hPa WNW 1.3 mph /  2.1 km/h 5.8 mph /  9.3 km/h 69 % 0.00 in /  0 mm
20:14 75.6 °F /  24.2 °C 64.7 °F /  18.2 °C 29.74 in /  1007 hPa WNW 0.1 mph /  0.2 km/h 1.2 mph /  1.9 km/h 69 % 0.00 in /  0 mm
20:19 75.4 °F /  24.1 °C 64.1 °F /  17.8 °C 29.74 in /  1007 hPa WSW 0.1 mph /  0.2 km/h 2.3 mph /  3.7 km/h 68 % 0.00 in /  0 mm
20:24 75.2 °F /  24 °C 63.5 °F /  17.5 °C 29.74 in /  1007 hPa WSW 1.2 mph /  1.9 km/h 4.6 mph /  7.4 km/h 67 % 0.00 in /  0 mm
20:29 75.1 °F /  23.9 °C 63.8 °F /  17.7 °C 29.74 in /  1007 hPa West 2.1 mph /  3.4 km/h 3.5 mph /  5.6 km/h 68 % 0.00 in /  0 mm
20:34 75.0 °F /  23.9 °C 63.7 °F /  17.6 °C 29.74 in /  1007 hPa West 0.9 mph /  1.4 km/h 3.5 mph /  5.6 km/h 68 % 0.00 in /  0 mm
20:39 75.0 °F /  23.9 °C 64.1 °F /  17.8 °C 29.75 in /  1007.3 hPa West 0.8 mph /  1.3 km/h 3.5 mph /  5.6 km/h 69 % 0.00 in /  0 mm
20:44 75.0 °F /  23.9 °C 64.5 °F /  18.1 °C 29.75 in /  1007.3 hPa WSW 0.6 mph /  1 km/h 5.0 mph /  8 km/h 70 % 0.00 in /  0 mm
20:49 74.9 °F /  23.8 °C 64.5 °F /  18.1 °C 29.75 in /  1007.3 hPa West 1.1 mph /  1.8 km/h 3.5 mph /  5.6 km/h 70 % 0.00 in /  0 mm
20:54 74.9 °F /  23.8 °C 64.9 °F /  18.3 °C 29.75 in /  1007.3 hPa WNW 0.9 mph /  1.4 km/h 5.0 mph /  8 km/h 71 % 0.00 in /  0 mm
20:59 74.8 °F /  23.8 °C 64.8 °F /  18.2 °C 29.75 in /  1007.3 hPa West 0.1 mph /  0.2 km/h 2.3 mph /  3.7 km/h 71 % 0.00 in /  0 mm
21:04 74.8 °F /  23.8 °C 64.8 °F /  18.2 °C 29.75 in /  1007.3 hPa Calm     71 % 0.00 in /  0 mm
21:09 74.7 °F /  23.7 °C 65.1 °F /  18.4 °C 29.76 in /  1007.7 hPa Calm   3.5 mph /  5.6 km/h 72 % 0.00 in /  0 mm
21:14 74.6 °F /  23.7 °C 65.0 °F /  18.3 °C 29.76 in /  1007.7 hPa West 0.2 mph /  0.3 km/h 2.3 mph /  3.7 km/h 72 % 0.00 in /  0 mm
21:20 74.5 °F /  23.6 °C 65.3 °F /  18.5 °C 29.76 in /  1007.7 hPa Calm     73 % 0.00 in /  0 mm
21:25 74.4 °F /  23.6 °C 65.2 °F /  18.4 °C 29.77 in /  1008 hPa WNW 0.1 mph /  0.2 km/h 3.5 mph /  5.6 km/h 73 % 0.00 in /  0 mm
21:30 74.3 °F /  23.5 °C 65.1 °F /  18.4 °C 29.77 in /  1008 hPa Calm   2.3 mph /  3.7 km/h 73 % 0.00 in /  0 mm
21:35 74.2 °F /  23.4 °C 65.4 °F /  18.6 °C 29.77 in /  1008 hPa Calm     74 % 0.00 in /  0 mm
21:40 74.0 °F /  23.3 °C 65.2 °F /  18.4 °C 29.77 in /  1008 hPa Calm     74 % 0.00 in /  0 mm
21:45 73.9 °F /  23.3 °C 65.1 °F /  18.4 °C 29.78 in /  1008.4 hPa Calm   1.2 mph /  1.9 km/h 74 % 0.00 in /  0 mm
21:50 73.7 °F /  23.2 °C 65.3 °F /  18.5 °C 29.78 in /  1008.4 hPa Calm     75 % 0.00 in /  0 mm
21:55 73.6 °F /  23.1 °C 65.6 °F /  18.7 °C 29.78 in /  1008.4 hPa Calm   2.3 mph /  3.7 km/h 76 % 0.00 in /  0 mm
22:00 73.4 °F /  23 °C 65.7 °F /  18.7 °C 29.79 in /  1008.7 hPa WNW 0.5 mph /  0.8 km/h 1.2 mph /  1.9 km/h 77 % 0.00 in /  0 mm
22:05 73.2 °F /  22.9 °C 65.9 °F /  18.8 °C 29.78 in /  1008.4 hPa Calm   1.2 mph /  1.9 km/h 78 % 0.00 in /  0 mm
22:10 73.0 °F /  22.8 °C 66.1 °F /  18.9 °C 29.79 in /  1008.7 hPa WNW 0.1 mph /  0.2 km/h 1.0 mph /  1.6 km/h 79 % 0.00 in /  0 mm
22:15 72.9 °F /  22.7 °C 66.0 °F /  18.9 °C 29.79 in /  1008.7 hPa Calm     79 % 0.00 in /  0 mm
22:20 72.8 °F /  22.7 °C 65.9 °F /  18.8 °C 29.79 in /  1008.7 hPa Calm   1.2 mph /  1.9 km/h 79 % 0.00 in /  0 mm
22:25 72.7 °F /  22.6 °C 66.2 °F /  19 °C 29.80 in /  1009 hPa WNW 0.3 mph /  0.5 km/h 1.2 mph /  1.9 km/h 80 % 0.00 in /  0 mm
22:30 72.6 °F /  22.6 °C 66.1 °F /  18.9 °C 29.80 in /  1009 hPa Calm     80 % 0.00 in /  0 mm
22:35 72.5 °F /  22.5 °C 66.0 °F /  18.9 °C 29.80 in /  1009 hPa Calm     80 % 0.00 in /  0 mm
22:40 72.4 °F /  22.4 °C 65.9 °F /  18.8 °C 29.80 in /  1009 hPa Calm     80 % 0.00 in /  0 mm
22:45 72.3 °F /  22.4 °C 65.8 °F /  18.8 °C 29.81 in /  1009.4 hPa WNW 0.3 mph /  0.5 km/h 2.3 mph /  3.7 km/h 80 % 0.00 in /  0 mm
22:51 72.2 °F /  22.3 °C 66.0 °F /  18.9 °C 29.81 in /  1009.4 hPa Calm   3.5 mph /  5.6 km/h 81 % 0.00 in /  0 mm
22:56 72.1 °F /  22.3 °C 65.9 °F /  18.8 °C 29.81 in /  1009.4 hPa Calm   3.0 mph /  4.8 km/h 81 % 0.00 in /  0 mm
23:01 72.1 °F /  22.3 °C 65.9 °F /  18.8 °C 29.81 in /  1009.4 hPa West 0.6 mph /  1 km/h 2.3 mph /  3.7 km/h 81 % 0.00 in /  0 mm
23:06 72.0 °F /  22.2 °C 65.8 °F /  18.8 °C 29.81 in /  1009.4 hPa West 0.1 mph /  0.2 km/h 1.2 mph /  1.9 km/h 81 % 0.00 in /  0 mm
23:11 72.0 °F /  22.2 °C 66.2 °F /  19 °C 29.81 in /  1009.4 hPa Calm   1.2 mph /  1.9 km/h 82 % 0.00 in /  0 mm
23:16 71.9 °F /  22.2 °C 66.1 °F /  18.9 °C 29.81 in /  1009.4 hPa WSW 0.1 mph /  0.2 km/h 2.3 mph /  3.7 km/h 82 % 0.00 in /  0 mm
23:21 71.9 °F /  22.2 °C 66.5 °F /  19.2 °C 29.81 in /  1009.4 hPa WSW 0.1 mph /  0.2 km/h 1.2 mph /  1.9 km/h 83 % 0.00 in /  0 mm
23:26 71.8 °F /  22.1 °C 66.4 °F /  19.1 °C 29.82 in /  1009.7 hPa WSW 0.2 mph /  0.3 km/h 1.0 mph /  1.6 km/h 83 % 0.00 in /  0 mm
23:31 71.8 °F /  22.1 °C 66.4 °F /  19.1 °C 29.82 in /  1009.7 hPa WSW 1.6 mph /  2.6 km/h 3.5 mph /  5.6 km/h 83 % 0.00 in /  0 mm
23:36 71.7 °F /  22.1 °C 66.3 °F /  19.1 °C 29.81 in /  1009.4 hPa Calm   1.2 mph /  1.9 km/h 83 % 0.00 in /  0 mm
23:37 71.7 °F /  22.1 °C 66.3 °F /  19.1 °C 29.81 in /  1009.4 hPa WSW 0.6 mph /  1 km/h 2.3 mph /  3.7 km/h 83 % 0.00 in /  0 mm
23:42 71.6 °F /  22 °C 66.2 °F /  19 °C 29.81 in /  1009.4 hPa WSW 0.9 mph /  1.4 km/h 2.3 mph /  3.7 km/h 83 % 0.00 in /  0 mm
23:47 71.5 °F /  21.9 °C 66.1 °F /  18.9 °C 29.81 in /  1009.4 hPa WSW 0.4 mph /  0.6 km/h 2.3 mph /  3.7 km/h 83 % 0.00 in /  0 mm
23:52 71.4 °F /  21.9 °C 66.0 °F /  18.9 °C 29.81 in /  1009.4 hPa Calm   2.3 mph /  3.7 km/h 83 % 0.00 in /  0 mm
23:57 71.3 °F /  21.8 °C 65.9 °F /  18.8 °C 29.81 in /  1009.4 hPa WSW 0.2 mph /  0.3 km/h 2.3 mph /  3.7 km/h 83 % 0.00 in /  0 mm
Crab Meadow Weather
Compliments of Weather Underground - 2.75 mb

Script developed by  Jim McMurry - jmcmurry@mwt.net Adapted for the template by  Wim van der Kuil - Leuven-Template.eu

Extremes: The highest temperature ever recorded in the United States was 134 degrees F at Greenland Ranch in Death Valley, California.